Time;durP1;ratioP1;P1;durP2;ratioP2;P2;SDS_P1;SDS_P2;PMS_P1;PMS_P2;Temp;Humidity;BMP_temperature;BMP_pressure;BME280_temperature;BME280_humidity;BME280_pressure;Samples;Min_cycle;Max_cycle;Signal;HPM_P1;HPM_P2
2022/09/27 00:02:12;;;;;;;0.50;0.50;;;;;;;18.41;100.00;98465.31;5037181;28;20197;-75
2022/09/27 00:04:38;;;;;;;0.50;0.50;;;;;;;18.36;100.00;98453.50;5038738;28;20580;-74
2022/09/27 00:07:06;;;;;;;0.60;0.60;;;;;;;18.37;100.00;98449.16;5032031;28;20688;-75
2022/09/27 00:09:33;;;;;;;0.40;0.40;;;;;;;18.27;100.00;98450.81;5041491;28;20228;-74
2022/09/27 00:12:00;;;;;;;0.50;0.50;;;;;;;18.35;100.00;98448.47;5038928;28;20502;-74
2022/09/27 00:14:27;;;;;;;0.60;0.60;;;;;;;18.46;100.00;98463.19;5040309;28;20207;-75
2022/09/27 00:16:56;;;;;;;0.50;0.50;;;;;;;18.31;100.00;98428.88;5040681;28;20205;-75
2022/09/27 00:19:24;;;;;;;0.53;0.53;;;;;;;18.27;100.00;98449.03;5044842;28;20213;-74
2022/09/27 00:21:52;;;;;;;0.43;0.43;;;;;;;17.90;100.00;98433.78;5037196;28;20209;-75
2022/09/27 00:24:20;;;;;;;0.43;0.43;;;;;;;17.80;100.00;98431.88;5044537;28;20276;-75
2022/09/27 00:26:47;;;;;;;0.50;0.50;;;;;;;17.80;100.00;98426.69;5043296;28;20207;-74
2022/09/27 00:29:17;;;;;;;0.40;0.40;;;;;;;17.83;100.00;98434.22;5041489;28;20225;-75
2022/09/27 00:31:45;;;;;;;0.50;0.50;;;;;;;17.88;100.00;98430.47;5038904;28;20199;-76
2022/09/27 00:34:18;;;;;;;0.50;0.50;;;;;;;17.96;100.00;98433.34;5036695;28;20228;-74
2022/09/27 00:36:45;;;;;;;0.50;0.50;;;;;;;18.09;100.00;98431.47;5037167;28;20200;-75
2022/09/27 00:39:12;;;;;;;0.40;0.40;;;;;;;18.10;100.00;98428.72;5034428;28;20280;-75
2022/09/27 00:41:40;;;;;;;0.60;0.60;;;;;;;18.05;100.00;98424.84;5039517;28;20672;-75
2022/09/27 00:44:40;;;;;;;0.40;0.40;;;;;;;17.99;100.00;98427.91;5045349;28;20236;-75
2022/09/27 00:47:14;;;;;;;0.70;0.70;;;;;;;18.01;100.00;98426.00;5040245;28;20202;-75
2022/09/27 00:49:46;;;;;;;0.30;0.30;;;;;;;18.13;100.00;98428.50;5042800;28;20208;-74
2022/09/27 00:52:19;;;;;;;0.50;0.50;;;;;;;18.27;100.00;98422.25;5032269;28;20198;-75
2022/09/27 00:54:50;;;;;;;0.50;0.50;;;;;;;18.22;100.00;98409.63;5031969;28;20644;-75
2022/09/27 00:57:18;;;;;;;0.47;0.47;;;;;;;18.17;100.00;98408.34;5035774;28;20201;-75
2022/09/27 00:59:49;;;;;;;0.40;0.40;;;;;;;18.26;100.00;98410.22;5041047;28;20198;-75
2022/09/27 01:02:16;;;;;;;0.50;0.50;;;;;;;18.35;100.00;98417.31;5039949;28;20197;-75
2022/09/27 01:04:46;;;;;;;0.50;0.50;;;;;;;18.32;100.00;98400.19;5039699;28;20275;-75
2022/09/27 01:07:14;;;;;;;0.50;0.50;;;;;;;18.37;100.00;98402.44;5034377;28;20205;-74
2022/09/27 01:09:41;;;;;;;0.50;0.50;;;;;;;18.34;100.00;98387.13;5032607;28;20598;-74
2022/09/27 01:12:16;;;;;;;0.40;0.40;;;;;;;18.45;100.00;98410.44;5040268;28;20199;-75
2022/09/27 01:14:59;;;;;;;0.60;0.60;;;;;;;18.51;100.00;98404.84;5035377;28;20584;-74
2022/09/27 01:17:38;;;;;;;0.40;0.40;;;;;;;18.57;100.00;98404.34;5040064;28;20224;-74
2022/09/27 01:20:37;;;;;;;0.50;0.50;;;;;;;18.64;100.00;98415.09;5035565;28;20197;-75
2022/09/27 01:23:34;;;;;;;0.50;0.50;;;;;;;18.70;100.00;98414.59;5032994;28;20193;-74
2022/09/27 01:26:15;;;;;;;0.40;0.40;;;;;;;18.75;100.00;98412.44;5031578;28;20278;-75
2022/09/27 01:28:55;;;;;;;0.40;0.40;;;;;;;18.74;100.00;98411.63;5038887;28;20226;-74
2022/09/27 01:31:31;;;;;;;0.40;0.40;;;;;;;18.79;100.00;98406.91;5033850;28;20209;-75
2022/09/27 01:34:04;;;;;;;0.33;0.33;;;;;;;18.77;100.00;98411.38;5042494;28;20783;-75
2022/09/27 01:36:40;;;;;;;0.47;0.47;;;;;;;18.77;100.00;98411.38;5042841;28;20200;-75
2022/09/27 01:39:20;;;;;;;0.60;0.60;;;;;;;18.80;100.00;98416.31;5036006;28;20189;-74
2022/09/27 01:41:56;;;;;;;0.57;0.57;;;;;;;18.84;100.00;98422.09;5046206;28;20544;-75
2022/09/27 01:44:28;;;;;;;0.50;0.50;;;;;;;18.87;100.00;98417.50;5042173;28;20196;-74
2022/09/27 01:47:03;;;;;;;0.50;0.50;;;;;;;18.83;100.00;98403.13;5038147;28;20596;-75
2022/09/27 01:49:37;;;;;;;0.40;0.40;;;;;;;18.79;100.00;98404.31;5043328;28;20208;-75
2022/09/27 01:52:06;;;;;;;0.50;0.50;;;;;;;18.79;100.00;98409.50;5046265;28;20185;-74
2022/09/27 01:54:39;;;;;;;0.40;0.40;;;;;;;18.76;100.00;98399.38;5044743;28;20228;-75
2022/09/27 01:57:09;;;;;;;0.40;0.40;;;;;;;18.59;100.00;98386.88;5040925;28;20284;-75
2022/09/27 01:59:44;;;;;;;0.50;0.50;;;;;;;18.53;100.00;98389.13;5043848;28;20209;-74
2022/09/27 02:02:15;;;;;;;0.40;0.40;;;;;;;18.54;100.00;98383.00;5045401;28;20194;-74
2022/09/27 02:04:44;;;;;;;0.40;0.40;;;;;;;18.55;100.00;98382.88;5043884;28;20217;-74
2022/09/27 02:07:16;;;;;;;0.50;0.50;;;;;;;18.54;100.00;98383.00;5044586;28;20200;-75
2022/09/27 02:09:47;;;;;;;0.57;0.57;;;;;;;18.54;100.00;98377.81;5046458;28;20208;-75
2022/09/27 02:12:18;;;;;;;0.40;0.40;;;;;;;18.43;100.00;98376.03;5043015;28;20251;-74
2022/09/27 02:14:51;;;;;;;0.50;0.50;;;;;;;18.46;100.00;98378.38;5041962;28;20228;-74
2022/09/27 02:17:31;;;;;;;0.60;0.60;;;;;;;18.50;100.00;98360.81;5045339;28;20197;-74
2022/09/27 02:20:06;;;;;;;0.40;0.40;;;;;;;18.57;100.00;98367.19;5037190;28;20208;-75
2022/09/27 02:22:36;;;;;;;0.53;0.53;;;;;;;18.59;100.00;98365.28;5037006;28;20572;-74
2022/09/27 02:25:14;;;;;;;0.30;0.30;;;;;;;18.62;100.00;98370.22;5036671;28;20204;-75
2022/09/27 02:27:57;;;;;;;0.40;0.40;;;;;;;18.66;100.00;98392.41;5037337;28;20193;-74
2022/09/27 02:30:24;;;;;;;0.40;0.40;;;;;;;18.66;100.00;98403.63;5043797;28;20201;-75
2022/09/27 02:32:54;;;;;;;0.40;0.40;;;;;;;18.65;100.00;98396.78;5045140;28;20565;-74
2022/09/27 02:35:28;;;;;;;0.60;0.60;;;;;;;18.59;100.00;98386.88;5032854;28;20683;-75
2022/09/27 02:37:56;;;;;;;0.50;0.50;;;;;;;18.71;100.00;98413.63;5033577;28;20262;-74
2022/09/27 02:40:24;;;;;;;0.60;0.60;;;;;;;18.73;100.00;98414.34;5035057;28;20205;-74
2022/09/27 02:42:51;;;;;;;0.40;0.40;;;;;;;18.66;100.00;98408.00;5037244;28;20197;-74
2022/09/27 02:45:20;;;;;;;0.50;0.50;;;;;;;18.57;100.00;98412.16;5043502;28;20198;-74
2022/09/27 02:47:59;;;;;;;0.43;0.43;;;;;;;18.45;100.00;98413.03;5034471;28;20212;-74
2022/09/27 02:50:49;;;;;;;0.53;0.53;;;;;;;18.43;100.00;98414.94;5036298;28;20224;-75
2022/09/27 02:53:28;;;;;;;0.50;0.50;;;;;;;18.43;100.00;98406.34;5036285;28;20221;-74
2022/09/27 02:56:07;;;;;;;0.50;0.50;;;;;;;18.39;100.00;98405.75;5038836;28;20200;-74
2022/09/27 02:58:47;;;;;;;0.70;0.70;;;;;;;18.38;100.00;98424.88;5034926;28;20193;-74
2022/09/27 03:01:23;;;;;;;0.30;0.30;;;;;;;18.32;100.00;98396.78;5035239;28;20262;-74
2022/09/27 03:03:57;;;;;;;0.70;0.70;;;;;;;18.32;100.00;98381.22;5043886;28;20580;-74
2022/09/27 03:06:25;;;;;;;0.50;0.50;;;;;;;18.33;100.00;98378.50;5036287;28;20199;-74
2022/09/27 03:08:52;;;;;;;0.63;0.63;;;;;;;18.36;100.00;98369.66;5047650;28;20193;-74
2022/09/27 03:11:19;;;;;;;0.50;0.50;;;;;;;18.35;100.00;98362.84;5042213;28;20204;-74
2022/09/27 03:13:46;;;;;;;0.50;0.50;;;;;;;18.42;100.00;98373.56;5032415;28;20213;-74
2022/09/27 03:16:14;;;;;;;0.40;0.40;;;;;;;18.38;100.00;98378.97;5039872;28;20205;-75
2022/09/27 03:18:42;;;;;;;0.40;0.40;;;;;;;18.41;100.00;98383.09;5034363;28;20240;-74
2022/09/27 03:21:10;;;;;;;0.80;0.80;;;;;;;18.40;100.00;98376.25;5034428;28;20204;-75
2022/09/27 03:23:37;;;;;;;0.47;0.47;;;;;;;18.44;100.00;98362.09;5048107;28;20561;-74
2022/09/27 03:26:04;;;;;;;0.50;0.50;;;;;;;18.44;100.00;98362.09;5043762;28;20197;-74
2022/09/27 03:28:31;;;;;;;0.60;0.60;;;;;;;18.46;100.00;98365.41;5044282;28;20200;-74
2022/09/27 03:30:58;;;;;;;0.40;0.40;;;;;;;18.41;100.00;98370.13;5033908;28;20204;-75
2022/09/27 03:33:25;;;;;;;0.60;0.60;;;;;;;18.36;100.00;98361.88;5037490;28;21653;-74
2022/09/27 03:35:52;;;;;;;0.60;0.60;;;;;;;18.36;100.00;98364.47;5035834;28;20202;-76
2022/09/27 03:38:20;;;;;;;0.50;0.50;;;;;;;18.36;100.00;98372.25;5045517;28;20192;-74
2022/09/27 03:40:47;;;;;;;0.40;0.40;;;;;;;18.32;100.00;98357.84;5040040;28;20580;-75
2022/09/27 03:43:14;;;;;;;0.40;0.40;;;;;;;18.32;100.00;98358.69;5042155;28;20224;-74
2022/09/27 03:45:44;;;;;;;0.40;0.40;;;;;;;18.34;100.00;98350.78;5038312;28;20689;-74
2022/09/27 03:48:11;;;;;;;0.50;0.50;;;;;;;18.35;100.00;98339.47;5043320;28;21090;-74
2022/09/27 03:50:38;;;;;;;0.60;0.60;;;;;;;18.33;100.00;98330.97;5049715;28;20199;-74
2022/09/27 03:53:05;;;;;;;0.40;0.40;;;;;;;18.33;100.00;98339.59;5044670;28;20204;-74
2022/09/27 03:55:34;;;;;;;0.50;0.50;;;;;;;18.35;100.00;98352.47;5040861;28;20589;-74
2022/09/27 03:58:01;;;;;;;0.53;0.53;;;;;;;18.38;100.00;98347.81;5039244;28;20231;-74
2022/09/27 04:00:30;;;;;;;0.50;0.50;;;;;;;18.40;100.00;98347.72;5044760;28;20278;-75
2022/09/27 04:02:57;;;;;;;0.50;0.50;;;;;;;18.37;100.00;98347.97;5049735;28;20240;-76
2022/09/27 04:05:25;;;;;;;0.60;0.60;;;;;;;18.30;100.00;98344.19;5041795;28;20296;-74
2022/09/27 04:07:53;;;;;;;0.40;0.40;;;;;;;18.33;100.00;98339.59;5040303;28;20575;-74
2022/09/27 04:10:20;;;;;;;0.50;0.50;;;;;;;18.27;100.00;98323.69;5045035;28;20201;-75
2022/09/27 04:12:48;;;;;;;0.30;0.30;;;;;;;18.34;100.00;98330.88;5048447;28;20201;-75
2022/09/27 04:15:15;;;;;;;0.50;0.50;;;;;;;18.38;100.00;98326.25;5035657;28;20220;-75
2022/09/27 04:17:43;;;;;;;0.40;0.40;;;;;;;18.38;100.00;98313.28;5037371;28;20289;-74
2022/09/27 04:20:11;;;;;;;0.40;0.40;;;;;;;18.41;100.00;98325.19;5033833;28;20221;-74
2022/09/27 04:22:40;;;;;;;0.43;0.43;;;;;;;18.42;100.00;98338.03;5042645;28;20201;-74
2022/09/27 04:25:08;;;;;;;0.40;0.40;;;;;;;18.47;100.00;98332.50;5034282;28;20198;-75
2022/09/27 04:27:35;;;;;;;0.40;0.40;;;;;;;18.47;100.00;98325.53;5041648;28;20266;-74
2022/09/27 04:30:05;;;;;;;0.50;0.50;;;;;;;18.49;100.00;98336.59;5044267;28;20188;-75
2022/09/27 04:32:32;;;;;;;0.50;0.50;;;;;;;18.51;100.00;98329.56;5045835;28;20204;-74
2022/09/27 04:37:44;;;;;;;0.60;0.60;;;;;;;18.55;100.00;98337.91;5040949;28;20282;-74
2022/09/27 04:40:10;;;;;;;0.53;0.53;;;;;;;18.52;100.00;98317.41;5042642;28;20300;-74
2022/09/27 04:42:38;;;;;;;0.50;0.50;;;;;;;18.50;100.00;98325.31;5039755;28;20222;-74
2022/09/27 04:45:07;;;;;;;0.50;0.50;;;;;;;18.55;100.00;98320.56;5038307;28;20212;-73
2022/09/27 04:47:34;;;;;;;0.50;0.50;;;;;;;18.54;100.00;98311.16;5045985;28;20200;-73
2022/09/27 04:50:02;;;;;;;1.07;1.07;;;;;;;18.51;100.00;98301.03;5041521;28;20216;-73
2022/09/27 04:52:28;;;;;;;0.60;0.60;;;;;;;18.57;100.00;98299.72;5044109;28;20197;-72
2022/09/27 04:54:55;;;;;;;0.50;0.50;;;;;;;18.60;100.00;98297.69;5040830;28;20605;-72
2022/09/27 04:57:22;;;;;;;0.40;0.40;;;;;;;18.64;100.00;98301.66;5040287;28;20208;-72
2022/09/27 04:59:50;;;;;;;0.90;0.90;;;;;;;18.62;100.00;98306.16;5043915;28;20723;-72
2022/09/27 05:02:19;;;;;;;0.60;0.60;;;;;;;18.64;100.00;98304.25;5036962;28;20491;-73
2022/09/27 05:04:45;;;;;;;0.70;0.70;;;;;;;18.66;100.00;98312.78;5044582;28;20224;-73
2022/09/27 05:07:12;;;;;;;0.50;0.50;;;;;;;18.72;100.00;98324.44;5046289;28;20682;-73
2022/09/27 05:09:39;;;;;;;0.63;0.63;;;;;;;18.71;100.00;98317.56;5038984;28;20197;-72
2022/09/27 05:12:07;;;;;;;0.63;0.63;;;;;;;18.73;100.00;98315.69;5042495;28;20212;-73
2022/09/27 05:14:34;;;;;;;0.60;0.60;;;;;;;18.76;100.00;98316.28;5035513;28;20221;-72
2022/09/27 05:17:01;;;;;;;0.50;0.50;;;;;;;18.80;100.00;98322.84;5040474;28;20220;-73
2022/09/27 05:19:29;;;;;;;0.40;0.40;;;;;;;18.83;100.00;98317.44;5043800;28;20206;-72
2022/09/27 05:21:56;;;;;;;0.50;0.50;;;;;;;18.81;100.00;98319.31;5035879;28;20280;-72
2022/09/27 05:24:23;;;;;;;0.50;0.50;;;;;;;18.84;100.00;98310.44;5043875;28;20209;-73
2022/09/27 05:26:51;;;;;;;0.30;0.30;;;;;;;18.83;100.00;98296.66;5049148;28;20193;-73
2022/09/27 05:29:18;;;;;;;0.47;0.47;;;;;;;18.51;100.00;98237.91;5044511;28;20227;-73
2022/09/27 05:31:46;;;;;;;0.40;0.40;;;;;;;18.78;100.00;98278.03;5041908;28;20201;-72
2022/09/27 05:34:13;;;;;;;0.50;0.50;;;;;;;18.86;100.00;98296.41;5045682;28;20324;-73
2022/09/27 05:36:41;;;;;;;0.50;0.50;;;;;;;18.92;100.00;98296.84;5042708;28;20197;-72
2022/09/27 05:39:08;;;;;;;0.50;0.50;;;;;;;18.97;100.00;98299.88;5041899;28;20220;-72
2022/09/27 05:41:35;;;;;;;0.40;0.40;;;;;;;18.99;100.00;98303.19;5039843;28;20217;-72
2022/09/27 05:44:02;;;;;;;0.50;0.50;;;;;;;18.98;100.00;98299.78;5047815;28;20557;-72
2022/09/27 05:46:29;;;;;;;0.40;0.40;;;;;;;18.95;100.00;98289.63;5043750;28;20271;-72
2022/09/27 05:48:56;;;;;;;0.40;0.40;;;;;;;18.97;100.00;98273.91;5040524;28;20576;-72
2022/09/27 05:51:23;;;;;;;0.40;0.40;;;;;;;19.00;100.00;98282.28;5042813;28;20208;-72
2022/09/27 05:53:51;;;;;;;0.30;0.30;;;;;;;18.76;100.00;98241.00;5037727;28;20600;-73
2022/09/27 05:56:18;;;;;;;0.47;0.47;;;;;;;19.07;100.00;98283.44;5042802;28;20196;-72
2022/09/27 05:58:45;;;;;;;0.30;0.30;;;;;;;19.03;100.00;98291.63;5043270;28;20224;-72
2022/09/27 06:01:12;;;;;;;0.60;0.60;;;;;;;19.09;100.00;98298.91;5044224;28;20185;-72
2022/09/27 06:03:39;;;;;;;0.40;0.40;;;;;;;19.05;100.00;98289.72;5038816;28;20285;-73
2022/09/27 06:06:09;;;;;;;0.40;0.40;;;;;;;19.07;100.00;98269.63;5044735;28;20205;-72
2022/09/27 06:08:37;;;;;;;0.60;0.60;;;;;;;19.07;100.00;98261.81;5042174;28;20202;-72
2022/09/27 06:11:08;;;;;;;0.40;0.40;;;;;;;19.05;100.00;98259.38;5036705;28;21073;-72
2022/09/27 06:13:36;;;;;;;0.30;0.30;;;;;;;18.93;100.00;98243.97;5044863;28;20227;-72
2022/09/27 06:16:03;;;;;;;0.37;0.37;;;;;;;18.82;100.00;98263.84;5039374;28;20274;-72
2022/09/27 06:18:30;;;;;;;0.30;0.30;;;;;;;18.66;100.00;98258.25;5038397;28;20691;-72
2022/09/27 06:20:59;;;;;;;0.40;0.40;;;;;;;18.50;100.00;98257.84;5045620;28;20191;-72
2022/09/27 06:23:27;;;;;;;0.50;0.50;;;;;;;18.59;100.00;98262.28;5036115;28;20292;-72
2022/09/27 06:25:55;;;;;;;0.50;0.50;;;;;;;18.66;100.00;98263.44;5038673;28;20239;-72
2022/09/27 06:28:25;;;;;;;0.40;0.40;;;;;;;18.93;100.00;98285.53;5043552;28;20212;-72
2022/09/27 06:30:53;;;;;;;0.40;0.40;;;;;;;19.08;100.00;98305.03;5038348;28;20215;-72
2022/09/27 06:33:21;;;;;;;0.40;0.40;;;;;;;19.25;100.00;98307.09;5042129;28;20682;-72
2022/09/27 06:35:48;;;;;;;0.50;0.50;;;;;;;19.42;100.00;98303.13;5039596;28;20214;-72
2022/09/27 06:38:17;;;;;;;0.50;0.50;;;;;;;19.54;100.00;98308.09;5044242;28;20616;-73
2022/09/27 06:40:45;;;;;;;0.40;0.40;;;;;;;19.66;100.00;98309.66;5041629;28;20194;-73
2022/09/27 06:43:14;;;;;;;0.50;0.50;;;;;;;19.74;100.00;98304.63;5038766;28;20219;-72
2022/09/27 06:45:42;;;;;;;0.50;0.50;;;;;;;19.74;100.00;98291.63;5036491;28;20197;-73
2022/09/27 06:48:11;;;;;;;0.50;0.50;;;;;;;19.72;100.00;98264.13;5042889;28;20203;-75
2022/09/27 06:50:40;;;;;;;0.40;0.40;;;;;;;19.94;100.00;98289.94;5039413;28;20199;-73
2022/09/27 06:53:09;;;;;;;0.40;0.40;;;;;;;20.00;100.00;98283.41;5038354;28;20204;-73
2022/09/27 06:55:37;;;;;;;0.80;0.80;;;;;;;20.00;100.00;98294.59;5038594;28;20225;-73
2022/09/27 07:00:52;;;;;;;0.40;0.40;;;;;;;20.08;100.00;98296.56;5044988;28;20288;-75
2022/09/27 07:03:21;;;;;;;0.50;0.50;;;;;;;20.04;100.00;98295.16;5047275;28;20345;-74
2022/09/27 07:05:56;;;;;;;0.40;0.40;;;;;;;20.08;100.00;98291.34;5038159;28;20221;-74
2022/09/27 07:08:27;;;;;;;0.47;0.47;;;;;;;20.13;100.00;98281.38;5037602;28;20201;-74
2022/09/27 07:10:55;;;;;;;0.40;0.40;;;;;;;20.16;100.00;98288.91;5038119;28;20252;-74
2022/09/27 07:13:23;;;;;;;0.47;0.47;;;;;;;20.11;100.00;98301.50;5041659;28;20321;-74
2022/09/27 07:15:52;;;;;;;0.43;0.43;;;;;;;20.40;100.00;98299.81;5044053;28;20219;-74
2022/09/27 07:18:19;;;;;;;0.40;0.40;;;;;;;20.62;100.00;98296.13;5041507;28;20199;-73
2022/09/27 07:20:46;;;;;;;0.40;0.40;;;;;;;20.74;100.00;98290.66;5040522;28;20190;-73
2022/09/27 07:23:14;;;;;;;0.60;0.60;;;;;;;20.74;100.00;98289.88;5037056;28;20236;-73
2022/09/27 07:25:41;;;;;;;0.40;0.40;;;;;;;20.67;99.27;98291.34;5034948;28;20228;-72
2022/09/27 07:28:18;;;;;;;0.50;0.50;;;;;;;20.64;97.57;98297.66;5037966;28;20199;-73
2022/09/27 07:30:45;;;;;;;0.50;0.50;;;;;;;20.69;98.89;98277.22;5040859;28;20580;-73
2022/09/27 07:33:14;;;;;;;0.40;0.40;;;;;;;20.70;99.42;98276.28;5043068;28;20892;-72
2022/09/27 07:35:43;;;;;;;0.37;0.37;;;;;;;20.82;98.94;98272.56;5037171;28;20226;-72
2022/09/27 07:38:12;;;;;;;0.30;0.30;;;;;;;20.99;97.21;98283.25;5037768;28;20281;-73
2022/09/27 07:40:39;;;;;;;0.40;0.40;;;;;;;21.13;96.54;98288.88;5045112;28;20199;-73
2022/09/27 07:43:08;;;;;;;0.40;0.40;;;;;;;21.18;95.60;98286.69;5035702;28;20207;-73
2022/09/27 07:45:36;;;;;;;0.40;0.40;;;;;;;20.99;94.56;98272.84;5037933;28;20208;-72
2022/09/27 07:48:06;;;;;;;0.33;0.33;;;;;;;21.18;93.99;98283.28;5041236;28;20207;-73
2022/09/27 07:50:39;;;;;;;0.40;0.40;;;;;;;21.44;93.25;98290.34;5044011;28;20223;-74
2022/09/27 07:53:06;;;;;;;0.43;0.43;;;;;;;21.67;91.60;98290.84;5046442;28;20207;-73
2022/09/27 07:55:34;;;;;;;0.40;0.40;;;;;;;21.81;90.50;98289.56;5040796;28;20314;-71
2022/09/27 07:58:06;;;;;;;0.50;0.50;;;;;;;21.82;89.75;98286.78;5040004;28;20217;-74
2022/09/27 08:00:33;;;;;;;0.30;0.30;;;;;;;21.85;89.96;98285.66;5039372;28;20631;-72
2022/09/27 08:03:05;;;;;;;0.60;0.60;;;;;;;21.93;92.43;98278.81;5042613;28;20201;-71
2022/09/27 08:05:35;;;;;;;0.30;0.30;;;;;;;22.25;92.52;98285.38;5037589;28;20741;-77
2022/09/27 08:08:07;;;;;;;0.30;0.30;;;;;;;22.53;92.17;98284.34;5041577;28;20250;-71
2022/09/27 08:10:36;;;;;;;0.30;0.30;;;;;;;22.80;88.74;98283.50;5045673;28;20274;-71
2022/09/27 08:13:05;;;;;;;0.30;0.30;;;;;;;22.93;87.84;98276.94;5035439;28;20243;-72
2022/09/27 08:15:34;;;;;;;0.40;0.40;;;;;;;23.00;87.24;98287.59;5049002;28;20228;-72
2022/09/27 08:18:02;;;;;;;0.30;0.30;;;;;;;23.00;86.58;98296.25;5039722;28;20557;-72
2022/09/27 08:20:29;;;;;;;0.30;0.30;;;;;;;23.04;85.79;98290.75;5037300;28;20255;-71
2022/09/27 08:22:59;;;;;;;0.30;0.30;;;;;;;23.08;86.29;98289.44;5035306;28;20204;-71
2022/09/27 08:25:27;;;;;;;0.30;0.30;;;;;;;23.14;86.66;98288.84;5041650;28;20208;-73
2022/09/27 08:27:59;;;;;;;0.30;0.30;;;;;;;22.64;85.04;98244.97;5037698;28;20208;-73
2022/09/27 08:30:31;;;;;;;0.40;0.40;;;;;;;22.94;85.75;98299.47;5049318;28;20262;-72
2022/09/27 08:33:01;;;;;;;0.30;0.30;;;;;;;22.99;86.62;98288.56;5046171;28;20284;-72
2022/09/27 08:35:29;;;;;;;0.40;0.40;;;;;;;22.97;85.36;98286.09;5045709;28;20227;-73
2022/09/27 08:38:00;;;;;;;2.63;2.43;;;;;;;22.93;84.35;98287.38;5038201;28;20196;-71
2022/09/27 08:40:37;;;;;;;0.30;0.30;;;;;;;23.01;83.99;98281.38;5047144;28;20224;-75
2022/09/27 08:43:14;;;;;;;0.30;0.30;;;;;;;23.03;84.23;98263.78;5050122;28;20196;-72
2022/09/27 08:46:00;;;;;;;0.30;0.30;;;;;;;23.13;84.42;98253.22;5049460;28;20204;-71
2022/09/27 08:48:32;;;;;;;0.40;0.40;;;;;;;23.25;83.97;98265.06;5043792;28;20211;-75
2022/09/27 08:51:03;;;;;;;0.40;0.40;;;;;;;23.38;85.38;98268.94;5046234;28;20205;-72
2022/09/27 08:53:37;;;;;;;0.30;0.30;;;;;;;23.40;85.77;98253.09;5052253;28;20195;-72
2022/09/27 08:56:09;;;;;;;0.30;0.30;;;;;;;23.59;83.09;98246.84;5035266;28;20719;-71
2022/09/27 08:58:41;;;;;;;0.30;0.30;;;;;;;23.71;82.72;98238.56;5040977;28;20196;-72
2022/09/27 09:01:14;;;;;;;0.30;0.30;;;;;;;23.73;80.92;98223.50;5037390;28;20203;-71
2022/09/27 09:03:48;;;;;;;0.30;0.30;;;;;;;23.50;79.63;98232.88;5047235;28;21011;-75
2022/09/27 09:06:22;;;;;;;0.40;0.40;;;;;;;23.46;80.69;98232.38;5050111;28;20593;-72
2022/09/27 09:09:06;;;;;;;0.30;0.30;;;;;;;23.46;80.50;98232.38;5042296;28;20774;-76
2022/09/27 09:14:57;;;;;;;0.30;0.30;;;;;;;23.52;81.92;98236.19;5037877;28;20216;-72
2022/09/27 09:17:35;;;;;;;0.40;0.40;;;;;;;23.56;82.91;98226.19;5042043;28;20198;-74
2022/09/27 09:20:16;;;;;;;0.30;0.30;;;;;;;23.55;79.95;98230.63;5047950;28;20205;-74
2022/09/27 09:22:58;;;;;;;0.43;0.43;;;;;;;23.64;80.32;98224.47;5046068;28;20185;-74
2022/09/27 09:25:35;;;;;;;0.40;0.40;;;;;;;23.75;80.21;98198.00;5038350;28;20193;-75
2022/09/27 09:28:16;;;;;;;0.33;0.33;;;;;;;23.70;81.67;98192.44;5045029;28;20276;-73
2022/09/27 09:30:56;;;;;;;0.23;0.23;;;;;;;23.79;80.83;98199.31;5044707;28;20204;-74
2022/09/27 09:33:28;;;;;;;0.33;0.33;;;;;;;23.90;79.78;98204.28;5044604;28;20644;-74
2022/09/27 09:36:00;;;;;;;0.30;0.30;;;;;;;24.09;78.89;98191.88;5041643;28;21046;-76
2022/09/27 09:38:34;;;;;;;0.23;0.23;;;;;;;24.29;81.08;98180.16;5044684;28;20230;-74
2022/09/27 09:41:06;;;;;;;0.20;0.20;;;;;;;24.39;79.62;98176.44;5044602;28;20200;-74
2022/09/27 09:43:39;;;;;;;0.20;0.20;;;;;;;24.44;79.59;98166.25;5047496;28;20717;-74
2022/09/27 09:46:11;;;;;;;0.30;0.30;;;;;;;24.68;78.81;98178.56;5047082;28;20216;-75
2022/09/27 09:48:45;;;;;;;0.30;0.30;;;;;;;24.87;76.61;98186.09;5045125;28;20188;-74
2022/09/27 09:51:20;;;;;;;0.20;0.20;;;;;;;24.95;77.75;98175.59;5044226;28;20194;-73
2022/09/27 09:53:53;;;;;;;0.30;0.30;;;;;;;25.12;75.71;98170.31;5039559;28;20276;-74
2022/09/27 09:56:24;;;;;;;0.30;0.30;;;;;;;25.25;74.45;98154.88;5032651;28;20746;-76
2022/09/27 09:58:57;;;;;;;0.23;0.23;;;;;;;25.30;74.57;98155.19;5045414;28;20197;-74
2022/09/27 10:01:28;;;;;;;0.40;0.40;;;;;;;25.32;72.62;98151.41;5035697;28;20200;-74
2022/09/27 10:03:57;;;;;;;0.20;0.20;;;;;;;25.34;72.82;98157.31;5051120;28;20236;-74
2022/09/27 10:06:26;;;;;;;0.20;0.20;;;;;;;25.37;71.25;98148.25;5043759;28;20676;-75
2022/09/27 10:08:54;;;;;;;0.30;0.30;;;;;;;25.18;73.23;98132.91;5040042;28;20280;-74
2022/09/27 10:11:26;;;;;;;0.20;0.20;;;;;;;25.14;73.35;98147.38;5042521;28;20232;-74
2022/09/27 10:13:55;;;;;;;0.20;0.20;;;;;;;25.31;73.48;98149.78;5039349;28;20220;-75
2022/09/27 10:16:24;;;;;;;0.30;0.30;;;;;;;25.42;72.12;98151.22;5033921;28;20217;-74
2022/09/27 10:18:56;;;;;;;0.20;0.20;;;;;;;25.47;71.79;98138.38;5040939;28;20663;-74
2022/09/27 10:21:28;;;;;;;0.30;0.30;;;;;;;25.56;72.03;98137.38;5040421;28;20208;-75
2022/09/27 10:24:04;;;;;;;0.20;0.20;;;;;;;25.63;71.34;98130.47;5041007;28;20263;-74
2022/09/27 10:26:33;;;;;;;0.30;0.30;;;;;;;25.55;71.41;98122.66;5045032;28;20586;-74
2022/09/27 10:29:16;;;;;;;0.23;0.23;;;;;;;25.72;72.14;98137.31;5038216;28;20627;-74
2022/09/27 10:31:46;;;;;;;0.40;0.40;;;;;;;25.80;71.99;98134.66;5040281;28;20646;-74
2022/09/27 10:34:21;;;;;;;0.30;0.30;;;;;;;25.69;70.33;98137.66;5038169;28;20212;-73
2022/09/27 10:37:03;;;;;;;0.20;0.20;;;;;;;25.67;71.81;98123.91;5038314;28;20311;-74
2022/09/27 10:39:31;;;;;;;0.30;0.30;;;;;;;25.63;70.71;98112.09;5038113;28;20258;-74
2022/09/27 10:41:59;;;;;;;0.20;0.20;;;;;;;25.65;69.86;98102.28;5042653;28;20675;-74
2022/09/27 10:44:27;;;;;;;0.20;0.20;;;;;;;25.76;71.60;98101.03;5039295;28;20210;-76
2022/09/27 10:46:58;;;;;;;0.20;0.20;;;;;;;25.86;71.74;98112.97;5043927;28;20238;-74
2022/09/27 10:49:29;;;;;;;0.27;0.27;;;;;;;25.86;71.26;98105.06;5041797;28;20209;-75
2022/09/27 10:51:58;;;;;;;0.20;0.20;;;;;;;26.00;70.71;98099.09;5038708;28;20233;-75
2022/09/27 10:54:28;;;;;;;0.20;0.20;;;;;;;26.10;70.07;98088.34;5037242;28;20233;-75
2022/09/27 10:56:58;;;;;;;0.20;0.20;;;;;;;26.18;68.84;98082.22;5038310;28;20252;-75
2022/09/27 10:59:30;;;;;;;0.30;0.30;;;;;;;26.24;69.42;98084.97;5045341;28;20258;-74
2022/09/27 11:01:58;;;;;;;0.20;0.20;;;;;;;26.36;69.63;98088.00;5039096;28;20201;-75
2022/09/27 11:04:30;;;;;;;0.27;0.27;;;;;;;26.50;69.10;98085.38;5039440;28;20286;-75
2022/09/27 11:07:08;;;;;;;0.37;0.37;;;;;;;26.57;68.33;98085.50;5038782;28;20196;-76
2022/09/27 11:09:49;;;;;;;0.67;0.67;;;;;;;26.61;69.21;98071.00;5043336;28;20232;-76
2022/09/27 11:12:19;;;;;;;0.20;0.20;;;;;;;26.71;70.37;98086.50;5043734;28;20196;-75
2022/09/27 11:14:54;;;;;;;0.27;0.27;;;;;;;26.74;68.55;98073.00;5038637;28;20672;-75
2022/09/27 11:17:27;;;;;;;0.20;0.20;;;;;;;26.76;67.19;98063.94;5038121;28;20725;-74
2022/09/27 11:20:07;;;;;;;0.20;0.20;;;;;;;26.65;67.91;98032.84;5051464;28;20561;-74
2022/09/27 11:22:59;;;;;;;0.50;0.50;;;;;;;26.90;68.53;98075.50;5051045;28;20189;-75
2022/09/27 11:25:39;;;;;;;0.20;0.20;;;;;;;26.86;67.00;98071.59;5038314;28;20213;-75
2022/09/27 11:28:21;;;;;;;0.23;0.23;;;;;;;26.93;67.79;98075.94;5047414;28;20276;-74
2022/09/27 11:30:56;;;;;;;0.20;0.20;;;;;;;27.00;68.45;98082.13;5041710;28;20197;-75
2022/09/27 11:33:53;;;;;;;0.30;0.30;;;;;;;27.10;64.39;98074.78;5031370;28;20193;-74
2022/09/27 11:36:33;;;;;;;0.20;0.20;;;;;;;27.18;67.78;98068.59;5037701;28;20700;-75
2022/09/27 11:39:07;;;;;;;0.20;0.20;;;;;;;27.36;65.07;98065.56;5043395;28;20705;-74
2022/09/27 11:42:00;;;;;;;0.20;0.20;;;;;;;27.47;64.74;98054.56;5032401;28;20684;-75
2022/09/27 11:44:51;;;;;;;0.20;0.20;;;;;;;27.47;64.07;98055.41;5043002;28;20279;-74
2022/09/27 11:47:31;;;;;;;0.20;0.20;;;;;;;27.49;65.12;98036.81;5047456;28;20238;-75
2022/09/27 11:50:40;;;;;;;0.20;0.20;;;;;;;27.50;65.07;98035.78;5036991;28;20743;-74
2022/09/27 11:53:20;;;;;;;0.20;0.20;;;;;;;27.56;64.60;98032.44;5029894;28;20201;-76
2022/09/27 11:55:58;;;;;;;0.20;0.20;;;;;;;27.65;63.34;98033.94;5042245;28;20204;-75
2022/09/27 11:58:33;;;;;;;0.20;0.20;;;;;;;27.72;63.48;98034.81;5050991;28;20688;-74